Alanson, Michigan
Current Conditions -  °F | °C
As of 10:55 AM on Friday 31 Oct 2014 (Local Time) from KMGN Reporting Station
Haze Haze  
Wind Chill: -5°   Ceiling: 1600
Heat Index:   Visibility: 4mi
Dew Point: -3°   Wind: 13mph
Humidity: 82%   Direction: 20°NNE
Pressure: 30.15"   Gusts: 22mph
Location:  45.44°N, 84.79°W
Report Text: KMGN 311455Z AUTO 02011G19KT 4SM HZ BKN016 BKN024 OVC029 00/M02 A3015 RMK AO2 T00001027
Loading
Personal Weather Stations






























Interactive Weather Map
Tropical Storm Tracking
New forecast layout! Learn more

10-Day Weather Forecast

Advertisements
Track Severe Weather on mobile